sensor_id;sensor_type;location;lat;lon;timestamp;temperature;humidity
23087;DHT22;11712;51.134;4.156;2023-05-07T00:01:04;17.30;99.90
23087;DHT22;11712;51.134;4.156;2023-05-07T00:03:31;17.20;99.90
23087;DHT22;11712;51.134;4.156;2023-05-07T00:05:57;17.30;99.90
23087;DHT22;11712;51.134;4.156;2023-05-07T00:08:23;17.20;99.90
23087;DHT22;11712;51.134;4.156;2023-05-07T00:10:49;17.10;99.90
23087;DHT22;11712;51.134;4.156;2023-05-07T00:13:14;17.10;99.90
23087;DHT22;11712;51.134;4.156;2023-05-07T00:15:40;17.00;99.90
23087;DHT22;11712;51.134;4.156;2023-05-07T00:18:05;16.90;99.90
23087;DHT22;11712;51.134;4.156;2023-05-07T00:20:31;16.70;99.90
23087;DHT22;11712;51.134;4.156;2023-05-07T00:22:56;16.70;99.90
23087;DHT22;11712;51.134;4.156;2023-05-07T00:25:22;16.60;99.90
23087;DHT22;11712;51.134;4.156;2023-05-07T00:27:48;16.60;99.90
23087;DHT22;11712;51.134;4.156;2023-05-07T00:30:13;16.70;99.90
23087;DHT22;11712;51.134;4.156;2023-05-07T00:32:39;16.70;99.90
23087;DHT22;11712;51.134;4.156;2023-05-07T00:35:05;16.70;99.90
23087;DHT22;11712;51.134;4.156;2023-05-07T00:37:31;16.80;99.90
23087;DHT22;11712;51.134;4.156;2023-05-07T00:39:57;16.80;99.90
23087;DHT22;11712;51.134;4.156;2023-05-07T00:42:22;16.80;99.90
23087;DHT22;11712;51.134;4.156;2023-05-07T00:44:49;16.80;99.90
23087;DHT22;11712;51.134;4.156;2023-05-07T00:47:15;16.80;99.90
23087;DHT22;11712;51.134;4.156;2023-05-07T00:49:41;16.80;99.90
23087;DHT22;11712;51.134;4.156;2023-05-07T00:52:07;16.70;99.90
23087;DHT22;11712;51.134;4.156;2023-05-07T00:54:34;16.60;99.90
23087;DHT22;11712;51.134;4.156;2023-05-07T00:57:00;16.40;99.90
23087;DHT22;11712;51.134;4.156;2023-05-07T00:59:27;16.40;99.90
23087;DHT22;11712;51.134;4.156;2023-05-07T01:01:52;16.30;99.90
23087;DHT22;11712;51.134;4.156;2023-05-07T01:04:18;16.10;99.90
23087;DHT22;11712;51.134;4.156;2023-05-07T01:06:44;16.00;99.90
23087;DHT22;11712;51.134;4.156;2023-05-07T01:09:09;15.90;99.90
23087;DHT22;11712;51.134;4.156;2023-05-07T01:11:35;15.90;99.90
23087;DHT22;11712;51.134;4.156;2023-05-07T01:14:01;16.00;99.90
23087;DHT22;11712;51.134;4.156;2023-05-07T01:16:27;16.00;99.90
23087;DHT22;11712;51.134;4.156;2023-05-07T01:18:52;16.00;99.90
23087;DHT22;11712;51.134;4.156;2023-05-07T01:21:18;16.00;99.90
23087;DHT22;11712;51.134;4.156;2023-05-07T01:23:50;16.00;99.90
23087;DHT22;11712;51.134;4.156;2023-05-07T01:26:15;16.00;99.90
23087;DHT22;11712;51.134;4.156;2023-05-07T01:28:41;16.00;99.90
23087;DHT22;11712;51.134;4.156;2023-05-07T01:31:07;16.00;99.90
23087;DHT22;11712;51.134;4.156;2023-05-07T01:33:34;16.00;99.90
23087;DHT22;11712;51.134;4.156;2023-05-07T01:36:00;16.00;99.90
23087;DHT22;11712;51.134;4.156;2023-05-07T01:38:27;16.00;99.90
23087;DHT22;11712;51.134;4.156;2023-05-07T01:40:53;16.00;99.90
23087;DHT22;11712;51.134;4.156;2023-05-07T01:43:19;16.00;99.90
23087;DHT22;11712;51.134;4.156;2023-05-07T01:45:45;16.10;99.90
23087;DHT22;11712;51.134;4.156;2023-05-07T01:48:11;16.10;99.90
23087;DHT22;11712;51.134;4.156;2023-05-07T01:50:38;16.00;99.90
23087;DHT22;11712;51.134;4.156;2023-05-07T01:53:04;16.00;99.90
23087;DHT22;11712;51.134;4.156;2023-05-07T01:55:29;16.00;99.90
23087;DHT22;11712;51.134;4.156;2023-05-07T01:57:55;16.00;99.90
23087;DHT22;11712;51.134;4.156;2023-05-07T02:00:20;16.10;99.90
23087;DHT22;11712;51.134;4.156;2023-05-07T02:02:46;16.10;99.90
23087;DHT22;11712;51.134;4.156;2023-05-07T02:05:12;16.20;99.90
23087;DHT22;11712;51.134;4.156;2023-05-07T02:07:37;16.30;99.90
23087;DHT22;11712;51.134;4.156;2023-05-07T02:10:03;16.30;99.90
23087;DHT22;11712;51.134;4.156;2023-05-07T02:12:29;16.40;99.90
23087;DHT22;11712;51.134;4.156;2023-05-07T02:14:54;16.40;99.90
23087;DHT22;11712;51.134;4.156;2023-05-07T02:17:20;16.40;99.90
23087;DHT22;11712;51.134;4.156;2023-05-07T02:19:46;16.40;99.90
23087;DHT22;11712;51.134;4.156;2023-05-07T02:22:11;16.50;99.90
23087;DHT22;11712;51.134;4.156;2023-05-07T02:24:37;16.50;99.90
23087;DHT22;11712;51.134;4.156;2023-05-07T02:27:02;16.50;99.90
23087;DHT22;11712;51.134;4.156;2023-05-07T02:29:28;16.50;99.90
23087;DHT22;11712;51.134;4.156;2023-05-07T02:31:54;16.50;99.90
23087;DHT22;11712;51.134;4.156;2023-05-07T02:34:20;16.30;99.90
23087;DHT22;11712;51.134;4.156;2023-05-07T02:36:46;16.30;99.90
23087;DHT22;11712;51.134;4.156;2023-05-07T02:39:12;16.20;99.90
23087;DHT22;11712;51.134;4.156;2023-05-07T02:41:38;16.00;99.90
23087;DHT22;11712;51.134;4.156;2023-05-07T02:44:03;16.00;99.90
23087;DHT22;11712;51.134;4.156;2023-05-07T02:46:29;16.00;99.90
23087;DHT22;11712;51.134;4.156;2023-05-07T02:48:55;16.00;99.90
23087;DHT22;11712;51.134;4.156;2023-05-07T02:51:21;16.10;99.90
23087;DHT22;11712;51.134;4.156;2023-05-07T02:53:46;16.10;99.90
23087;DHT22;11712;51.134;4.156;2023-05-07T02:56:12;16.00;99.90
23087;DHT22;11712;51.134;4.156;2023-05-07T02:58:38;16.00;99.90
23087;DHT22;11712;51.134;4.156;2023-05-07T03:01:07;16.00;99.90
23087;DHT22;11712;51.134;4.156;2023-05-07T03:03:33;15.90;99.90
23087;DHT22;11712;51.134;4.156;2023-05-07T03:05:59;16.00;99.90
23087;DHT22;11712;51.134;4.156;2023-05-07T03:08:25;16.00;99.90
23087;DHT22;11712;51.134;4.156;2023-05-07T03:10:50;16.00;99.90
23087;DHT22;11712;51.134;4.156;2023-05-07T03:13:16;16.10;99.90
23087;DHT22;11712;51.134;4.156;2023-05-07T03:15:41;16.20;99.90
23087;DHT22;11712;51.134;4.156;2023-05-07T03:18:07;16.10;99.90
23087;DHT22;11712;51.134;4.156;2023-05-07T03:20:32;16.10;99.90
23087;DHT22;11712;51.134;4.156;2023-05-07T03:22:58;16.20;99.90
23087;DHT22;11712;51.134;4.156;2023-05-07T03:25:23;16.30;99.90
23087;DHT22;11712;51.134;4.156;2023-05-07T03:27:49;16.30;99.90
23087;DHT22;11712;51.134;4.156;2023-05-07T03:30:15;16.30;99.90
23087;DHT22;11712;51.134;4.156;2023-05-07T03:32:40;16.30;99.90
23087;DHT22;11712;51.134;4.156;2023-05-07T03:35:06;16.40;99.90
23087;DHT22;11712;51.134;4.156;2023-05-07T03:37:31;16.40;99.90
23087;DHT22;11712;51.134;4.156;2023-05-07T03:39:57;16.40;99.90
23087;DHT22;11712;51.134;4.156;2023-05-07T03:42:23;16.40;99.90
23087;DHT22;11712;51.134;4.156;2023-05-07T03:44:49;16.30;99.90
23087;DHT22;11712;51.134;4.156;2023-05-07T03:47:14;16.20;99.90
23087;DHT22;11712;51.134;4.156;2023-05-07T03:49:40;16.10;99.90
23087;DHT22;11712;51.134;4.156;2023-05-07T03:52:06;16.00;99.90
23087;DHT22;11712;51.134;4.156;2023-05-07T03:54:31;16.00;99.90
23087;DHT22;11712;51.134;4.156;2023-05-07T03:56:57;16.10;99.90
23087;DHT22;11712;51.134;4.156;2023-05-07T03:59:22;16.10;99.90
23087;DHT22;11712;51.134;4.156;2023-05-07T04:01:48;16.10;99.90
23087;DHT22;11712;51.134;4.156;2023-05-07T04:04:16;16.10;99.90
23087;DHT22;11712;51.134;4.156;2023-05-07T04:06:42;16.20;99.90
23087;DHT22;11712;51.134;4.156;2023-05-07T04:09:07;16.30;99.90
23087;DHT22;11712;51.134;4.156;2023-05-07T04:11:33;16.30;99.90
23087;DHT22;11712;51.134;4.156;2023-05-07T04:13:58;16.30;99.90
23087;DHT22;11712;51.134;4.156;2023-05-07T04:16:24;16.40;99.90
23087;DHT22;11712;51.134;4.156;2023-05-07T04:18:50;16.40;99.90
23087;DHT22;11712;51.134;4.156;2023-05-07T04:21:16;16.40;99.90
23087;DHT22;11712;51.134;4.156;2023-05-07T04:23:42;16.40;99.90
23087;DHT22;11712;51.134;4.156;2023-05-07T04:26:07;16.40;99.90
23087;DHT22;11712;51.134;4.156;2023-05-07T04:28:33;16.50;99.90
23087;DHT22;11712;51.134;4.156;2023-05-07T04:30:59;16.60;99.90
23087;DHT22;11712;51.134;4.156;2023-05-07T04:33:25;16.50;99.90
23087;DHT22;11712;51.134;4.156;2023-05-07T04:35:50;16.60;99.90
23087;DHT22;11712;51.134;4.156;2023-05-07T04:38:16;16.70;99.90
23087;DHT22;11712;51.134;4.156;2023-05-07T04:40:41;16.80;99.90
23087;DHT22;11712;51.134;4.156;2023-05-07T04:43:07;16.80;99.90
23087;DHT22;11712;51.134;4.156;2023-05-07T04:45:34;16.90;99.90
23087;DHT22;11712;51.134;4.156;2023-05-07T04:48:00;16.90;99.90
23087;DHT22;11712;51.134;4.156;2023-05-07T04:50:26;17.00;99.90
23087;DHT22;11712;51.134;4.156;2023-05-07T04:52:51;16.90;99.90
23087;DHT22;11712;51.134;4.156;2023-05-07T04:55:17;16.90;99.90
23087;DHT22;11712;51.134;4.156;2023-05-07T04:57:43;16.90;99.90
23087;DHT22;11712;51.134;4.156;2023-05-07T05:00:08;16.90;99.90
23087;DHT22;11712;51.134;4.156;2023-05-07T05:02:34;17.00;99.90
23087;DHT22;11712;51.134;4.156;2023-05-07T05:05:00;17.00;99.90
23087;DHT22;11712;51.134;4.156;2023-05-07T05:07:27;17.00;99.90
23087;DHT22;11712;51.134;4.156;2023-05-07T05:09:53;17.00;99.90
23087;DHT22;11712;51.134;4.156;2023-05-07T05:12:19;17.10;99.90
23087;DHT22;11712;51.134;4.156;2023-05-07T05:14:44;17.10;99.90
23087;DHT22;11712;51.134;4.156;2023-05-07T05:17:10;17.20;99.90
23087;DHT22;11712;51.134;4.156;2023-05-07T05:19:35;17.30;99.90
23087;DHT22;11712;51.134;4.156;2023-05-07T05:22:01;17.30;99.90
23087;DHT22;11712;51.134;4.156;2023-05-07T05:24:29;17.50;99.90
23087;DHT22;11712;51.134;4.156;2023-05-07T05:26:55;17.60;99.90
23087;DHT22;11712;51.134;4.156;2023-05-07T05:29:20;17.70;99.90
23087;DHT22;11712;51.134;4.156;2023-05-07T05:31:46;17.70;99.90
23087;DHT22;11712;51.134;4.156;2023-05-07T05:34:12;17.70;99.90
23087;DHT22;11712;51.134;4.156;2023-05-07T05:36:37;17.70;99.90
23087;DHT22;11712;51.134;4.156;2023-05-07T05:39:03;17.80;99.90
23087;DHT22;11712;51.134;4.156;2023-05-07T05:41:29;17.80;99.90
23087;DHT22;11712;51.134;4.156;2023-05-07T05:43:55;17.80;99.90
23087;DHT22;11712;51.134;4.156;2023-05-07T05:46:21;17.90;99.90
23087;DHT22;11712;51.134;4.156;2023-05-07T05:48:46;17.60;99.90
23087;DHT22;11712;51.134;4.156;2023-05-07T05:51:12;17.50;99.90
23087;DHT22;11712;51.134;4.156;2023-05-07T05:53:38;17.40;99.90
23087;DHT22;11712;51.134;4.156;2023-05-07T05:56:03;17.70;99.90
23087;DHT22;11712;51.134;4.156;2023-05-07T05:58:29;17.80;99.90
23087;DHT22;11712;51.134;4.156;2023-05-07T06:00:55;18.00;99.90
23087;DHT22;11712;51.134;4.156;2023-05-07T06:03:21;17.90;99.90
23087;DHT22;11712;51.134;4.156;2023-05-07T06:05:47;17.70;99.90
23087;DHT22;11712;51.134;4.156;2023-05-07T06:08:12;17.70;99.90
23087;DHT22;11712;51.134;4.156;2023-05-07T06:10:38;17.50;99.90
23087;DHT22;11712;51.134;4.156;2023-05-07T06:13:04;17.40;99.90
23087;DHT22;11712;51.134;4.156;2023-05-07T06:15:29;17.40;99.90
23087;DHT22;11712;51.134;4.156;2023-05-07T06:17:55;17.50;99.90
23087;DHT22;11712;51.134;4.156;2023-05-07T06:20:22;17.70;99.90
23087;DHT22;11712;51.134;4.156;2023-05-07T06:22:48;18.00;99.90
23087;DHT22;11712;51.134;4.156;2023-05-07T06:25:14;18.20;99.90
23087;DHT22;11712;51.134;4.156;2023-05-07T06:27:39;18.40;99.90
23087;DHT22;11712;51.134;4.156;2023-05-07T06:30:05;18.40;99.90
23087;DHT22;11712;51.134;4.156;2023-05-07T06:32:31;18.60;99.90
23087;DHT22;11712;51.134;4.156;2023-05-07T06:34:57;18.50;99.90
23087;DHT22;11712;51.134;4.156;2023-05-07T06:37:22;18.50;99.90
23087;DHT22;11712;51.134;4.156;2023-05-07T06:39:48;18.60;99.90
23087;DHT22;11712;51.134;4.156;2023-05-07T06:42:13;18.50;99.90
23087;DHT22;11712;51.134;4.156;2023-05-07T06:44:39;18.50;99.90
23087;DHT22;11712;51.134;4.156;2023-05-07T06:47:04;18.40;99.90
23087;DHT22;11712;51.134;4.156;2023-05-07T06:49:30;18.40;99.90
23087;DHT22;11712;51.134;4.156;2023-05-07T06:51:56;18.40;99.90
23087;DHT22;11712;51.134;4.156;2023-05-07T06:54:22;18.20;99.90
23087;DHT22;11712;51.134;4.156;2023-05-07T06:56:48;18.20;99.90
23087;DHT22;11712;51.134;4.156;2023-05-07T06:59:13;18.20;99.90
23087;DHT22;11712;51.134;4.156;2023-05-07T07:01:39;18.20;99.90
23087;DHT22;11712;51.134;4.156;2023-05-07T07:04:05;18.00;99.90
23087;DHT22;11712;51.134;4.156;2023-05-07T07:06:31;18.00;99.90
23087;DHT22;11712;51.134;4.156;2023-05-07T07:08:57;18.00;99.90
23087;DHT22;11712;51.134;4.156;2023-05-07T07:11:23;17.90;99.90
23087;DHT22;11712;51.134;4.156;2023-05-07T07:13:48;17.90;99.90
23087;DHT22;11712;51.134;4.156;2023-05-07T07:16:14;17.80;99.90
23087;DHT22;11712;51.134;4.156;2023-05-07T07:18:40;17.70;99.90
23087;DHT22;11712;51.134;4.156;2023-05-07T07:21:05;17.90;99.90
23087;DHT22;11712;51.134;4.156;2023-05-07T07:23:31;17.70;99.90
23087;DHT22;11712;51.134;4.156;2023-05-07T07:25:57;17.70;99.90
23087;DHT22;11712;51.134;4.156;2023-05-07T07:28:22;17.70;99.90
23087;DHT22;11712;51.134;4.156;2023-05-07T07:30:48;17.70;99.90
23087;DHT22;11712;51.134;4.156;2023-05-07T07:33:13;17.80;99.90
23087;DHT22;11712;51.134;4.156;2023-05-07T07:35:39;17.60;99.90
23087;DHT22;11712;51.134;4.156;2023-05-07T07:38:05;17.50;99.90
23087;DHT22;11712;51.134;4.156;2023-05-07T07:40:31;17.60;99.90
23087;DHT22;11712;51.134;4.156;2023-05-07T07:42:56;17.50;99.90
23087;DHT22;11712;51.134;4.156;2023-05-07T07:45:22;17.40;99.90
23087;DHT22;11712;51.134;4.156;2023-05-07T07:47:48;17.40;99.90
23087;DHT22;11712;51.134;4.156;2023-05-07T07:50:13;17.50;99.90
23087;DHT22;11712;51.134;4.156;2023-05-07T07:52:39;17.60;99.90
23087;DHT22;11712;51.134;4.156;2023-05-07T07:55:05;17.80;99.90
23087;DHT22;11712;51.134;4.156;2023-05-07T07:57:30;17.60;99.90
23087;DHT22;11712;51.134;4.156;2023-05-07T07:59:56;17.50;99.90
23087;DHT22;11712;51.134;4.156;2023-05-07T08:02:21;17.60;99.90
23087;DHT22;11712;51.134;4.156;2023-05-07T08:04:47;17.70;99.90
23087;DHT22;11712;51.134;4.156;2023-05-07T08:07:13;17.70;99.90
23087;DHT22;11712;51.134;4.156;2023-05-07T08:09:38;17.60;99.90
23087;DHT22;11712;51.134;4.156;2023-05-07T08:12:04;17.60;99.90
23087;DHT22;11712;51.134;4.156;2023-05-07T08:14:30;17.60;99.90
23087;DHT22;11712;51.134;4.156;2023-05-07T08:16:56;17.50;99.90
23087;DHT22;11712;51.134;4.156;2023-05-07T08:19:21;17.40;99.90
23087;DHT22;11712;51.134;4.156;2023-05-07T08:21:47;17.50;99.90
23087;DHT22;11712;51.134;4.156;2023-05-07T08:24:13;17.60;99.90
23087;DHT22;11712;51.134;4.156;2023-05-07T08:26:39;17.60;99.90
23087;DHT22;11712;51.134;4.156;2023-05-07T08:29:05;17.60;99.90
23087;DHT22;11712;51.134;4.156;2023-05-07T08:31:30;17.60;99.90
23087;DHT22;11712;51.134;4.156;2023-05-07T08:33:57;17.50;99.90
23087;DHT22;11712;51.134;4.156;2023-05-07T08:36:22;17.50;99.90
23087;DHT22;11712;51.134;4.156;2023-05-07T08:38:48;17.40;99.90
23087;DHT22;11712;51.134;4.156;2023-05-07T08:41:15;17.40;99.90
23087;DHT22;11712;51.134;4.156;2023-05-07T08:43:40;17.30;99.90
23087;DHT22;11712;51.134;4.156;2023-05-07T08:46:06;17.30;99.90
23087;DHT22;11712;51.134;4.156;2023-05-07T08:48:34;17.40;99.90
23087;DHT22;11712;51.134;4.156;2023-05-07T08:51:00;17.40;99.90
23087;DHT22;11712;51.134;4.156;2023-05-07T08:53:26;17.60;99.90
23087;DHT22;11712;51.134;4.156;2023-05-07T08:55:52;17.60;99.90
23087;DHT22;11712;51.134;4.156;2023-05-07T08:58:18;17.70;99.90
23087;DHT22;11712;51.134;4.156;2023-05-07T09:00:43;17.70;99.90
23087;DHT22;11712;51.134;4.156;2023-05-07T09:03:09;17.60;99.90
23087;DHT22;11712;51.134;4.156;2023-05-07T09:05:37;17.70;99.90
23087;DHT22;11712;51.134;4.156;2023-05-07T09:08:03;17.70;99.90
23087;DHT22;11712;51.134;4.156;2023-05-07T09:10:31;17.80;99.90
23087;DHT22;11712;51.134;4.156;2023-05-07T09:12:57;17.70;99.90
23087;DHT22;11712;51.134;4.156;2023-05-07T09:15:23;17.80;99.90
23087;DHT22;11712;51.134;4.156;2023-05-07T09:17:48;17.90;99.90
23087;DHT22;11712;51.134;4.156;2023-05-07T09:20:14;17.80;99.90
23087;DHT22;11712;51.134;4.156;2023-05-07T09:22:41;17.70;99.90
23087;DHT22;11712;51.134;4.156;2023-05-07T09:25:07;17.70;99.90
23087;DHT22;11712;51.134;4.156;2023-05-07T09:27:33;17.90;99.90
23087;DHT22;11712;51.134;4.156;2023-05-07T09:29:58;18.00;99.90
23087;DHT22;11712;51.134;4.156;2023-05-07T09:32:24;18.10;99.90
23087;DHT22;11712;51.134;4.156;2023-05-07T09:34:50;18.10;99.90
23087;DHT22;11712;51.134;4.156;2023-05-07T09:37:16;18.00;99.90
23087;DHT22;11712;51.134;4.156;2023-05-07T09:42:07;17.90;99.90
23087;DHT22;11712;51.134;4.156;2023-05-07T09:44:33;18.00;99.90
23087;DHT22;11712;51.134;4.156;2023-05-07T09:46:59;18.00;99.90
23087;DHT22;11712;51.134;4.156;2023-05-07T09:49:25;18.10;99.90
23087;DHT22;11712;51.134;4.156;2023-05-07T09:51:55;18.10;99.90
23087;DHT22;11712;51.134;4.156;2023-05-07T09:54:22;18.10;99.90
23087;DHT22;11712;51.134;4.156;2023-05-07T09:56:51;18.10;99.90
23087;DHT22;11712;51.134;4.156;2023-05-07T09:59:17;18.10;99.90
23087;DHT22;11712;51.134;4.156;2023-05-07T10:01:43;18.00;99.90
23087;DHT22;11712;51.134;4.156;2023-05-07T10:04:09;18.00;99.90
23087;DHT22;11712;51.134;4.156;2023-05-07T10:06:35;18.00;99.90
23087;DHT22;11712;51.134;4.156;2023-05-07T10:09:03;17.90;99.90
23087;DHT22;11712;51.134;4.156;2023-05-07T10:11:31;17.90;99.90
23087;DHT22;11712;51.134;4.156;2023-05-07T10:13:57;17.90;99.90
23087;DHT22;11712;51.134;4.156;2023-05-07T10:16:22;17.80;99.90
23087;DHT22;11712;51.134;4.156;2023-05-07T10:18:48;17.70;99.90
23087;DHT22;11712;51.134;4.156;2023-05-07T10:23:40;17.80;99.90
23087;DHT22;11712;51.134;4.156;2023-05-07T10:26:06;17.80;99.90
23087;DHT22;11712;51.134;4.156;2023-05-07T10:28:34;17.80;99.90
23087;DHT22;11712;51.134;4.156;2023-05-07T10:31:08;17.90;99.90
23087;DHT22;11712;51.134;4.156;2023-05-07T10:33:35;17.80;99.90
23087;DHT22;11712;51.134;4.156;2023-05-07T10:36:01;18.00;99.90
23087;DHT22;11712;51.134;4.156;2023-05-07T10:38:28;18.00;99.90
23087;DHT22;11712;51.134;4.156;2023-05-07T10:40:54;18.10;99.90
23087;DHT22;11712;51.134;4.156;2023-05-07T10:43:19;18.40;99.90
23087;DHT22;11712;51.134;4.156;2023-05-07T10:46:08;18.70;99.90
23087;DHT22;11712;51.134;4.156;2023-05-07T10:48:30;18.70;99.90
23087;DHT22;11712;51.134;4.156;2023-05-07T10:53:40;18.70;99.90
23087;DHT22;11712;51.134;4.156;2023-05-07T10:58:46;18.90;99.90
23087;DHT22;11712;51.134;4.156;2023-05-07T11:01:12;19.20;99.90
23087;DHT22;11712;51.134;4.156;2023-05-07T11:06:23;19.60;99.90
23087;DHT22;11712;51.134;4.156;2023-05-07T11:11:17;19.60;99.90
23087;DHT22;11712;51.134;4.156;2023-05-07T11:13:44;19.90;99.90
23087;DHT22;11712;51.134;4.156;2023-05-07T11:16:19;20.00;99.90
23087;DHT22;11712;51.134;4.156;2023-05-07T11:18:46;20.10;99.90
23087;DHT22;11712;51.134;4.156;2023-05-07T11:21:13;20.00;99.90
23087;DHT22;11712;51.134;4.156;2023-05-07T11:26:09;20.30;99.90
23087;DHT22;11712;51.134;4.156;2023-05-07T11:28:39;20.50;99.90
23087;DHT22;11712;51.134;4.156;2023-05-07T11:31:05;20.40;99.90
23087;DHT22;11712;51.134;4.156;2023-05-07T11:33:30;20.50;99.90
23087;DHT22;11712;51.134;4.156;2023-05-07T11:35:56;20.50;99.90
23087;DHT22;11712;51.134;4.156;2023-05-07T11:38:22;20.70;99.90
23087;DHT22;11712;51.134;4.156;2023-05-07T11:40:48;20.90;99.90
23087;DHT22;11712;51.134;4.156;2023-05-07T11:43:14;21.10;99.90
23087;DHT22;11712;51.134;4.156;2023-05-07T11:45:39;21.20;99.90
23087;DHT22;11712;51.134;4.156;2023-05-07T11:48:05;21.10;99.90
23087;DHT22;11712;51.134;4.156;2023-05-07T11:50:30;21.20;99.90
23087;DHT22;11712;51.134;4.156;2023-05-07T11:52:56;21.40;99.90
23087;DHT22;11712;51.134;4.156;2023-05-07T11:55:23;21.30;99.90
23087;DHT22;11712;51.134;4.156;2023-05-07T11:57:50;21.40;99.90
23087;DHT22;11712;51.134;4.156;2023-05-07T12:00:15;21.30;99.90
23087;DHT22;11712;51.134;4.156;2023-05-07T12:02:42;21.50;99.90
23087;DHT22;11712;51.134;4.156;2023-05-07T12:05:07;21.40;99.90
23087;DHT22;11712;51.134;4.156;2023-05-07T12:07:33;21.50;99.90
23087;DHT22;11712;51.134;4.156;2023-05-07T12:09:59;21.70;99.90
23087;DHT22;11712;51.134;4.156;2023-05-07T12:12:25;21.70;99.90
23087;DHT22;11712;51.134;4.156;2023-05-07T12:14:52;21.80;99.90
23087;DHT22;11712;51.134;4.156;2023-05-07T12:17:19;21.90;99.90
23087;DHT22;11712;51.134;4.156;2023-05-07T12:19:45;22.00;99.90
23087;DHT22;11712;51.134;4.156;2023-05-07T12:22:11;22.00;99.90
23087;DHT22;11712;51.134;4.156;2023-05-07T12:24:46;22.30;99.90
23087;DHT22;11712;51.134;4.156;2023-05-07T12:27:15;22.20;99.90
23087;DHT22;11712;51.134;4.156;2023-05-07T12:29:47;22.30;99.90
23087;DHT22;11712;51.134;4.156;2023-05-07T12:32:14;22.20;99.90
23087;DHT22;11712;51.134;4.156;2023-05-07T12:34:40;22.00;99.90
23087;DHT22;11712;51.134;4.156;2023-05-07T12:37:05;21.90;99.90
23087;DHT22;11712;51.134;4.156;2023-05-07T12:39:31;22.00;99.90
23087;DHT22;11712;51.134;4.156;2023-05-07T12:41:58;22.10;99.90
23087;DHT22;11712;51.134;4.156;2023-05-07T12:44:33;22.20;99.90
23087;DHT22;11712;51.134;4.156;2023-05-07T12:47:02;22.30;99.90
23087;DHT22;11712;51.134;4.156;2023-05-07T12:49:28;22.20;99.90
23087;DHT22;11712;51.134;4.156;2023-05-07T12:51:54;22.40;99.90
23087;DHT22;11712;51.134;4.156;2023-05-07T12:57:28;22.60;99.90
23087;DHT22;11712;51.134;4.156;2023-05-07T12:59:46;22.60;99.90
23087;DHT22;11712;51.134;4.156;2023-05-07T13:02:12;22.60;99.90
23087;DHT22;11712;51.134;4.156;2023-05-07T13:04:37;22.30;99.90
23087;DHT22;11712;51.134;4.156;2023-05-07T13:07:03;22.10;99.90
23087;DHT22;11712;51.134;4.156;2023-05-07T13:09:29;22.20;99.90
23087;DHT22;11712;51.134;4.156;2023-05-07T13:11:54;21.90;99.90
23087;DHT22;11712;51.134;4.156;2023-05-07T13:14:20;21.50;99.90
23087;DHT22;11712;51.134;4.156;2023-05-07T13:16:46;21.30;99.90
23087;DHT22;11712;51.134;4.156;2023-05-07T13:19:12;21.10;99.90
23087;DHT22;11712;51.134;4.156;2023-05-07T13:21:38;21.00;99.90
23087;DHT22;11712;51.134;4.156;2023-05-07T13:24:03;20.90;99.90
23087;DHT22;11712;51.134;4.156;2023-05-07T13:26:29;20.90;99.90
23087;DHT22;11712;51.134;4.156;2023-05-07T13:28:55;20.80;99.90
23087;DHT22;11712;51.134;4.156;2023-05-07T13:31:21;20.80;99.90
23087;DHT22;11712;51.134;4.156;2023-05-07T13:33:46;20.60;99.90
23087;DHT22;11712;51.134;4.156;2023-05-07T13:36:12;20.50;99.90
23087;DHT22;11712;51.134;4.156;2023-05-07T13:38:38;20.30;99.90
23087;DHT22;11712;51.134;4.156;2023-05-07T13:41:04;20.60;99.90
23087;DHT22;11712;51.134;4.156;2023-05-07T13:43:29;21.00;99.90
23087;DHT22;11712;51.134;4.156;2023-05-07T13:45:55;21.50;99.90
23087;DHT22;11712;51.134;4.156;2023-05-07T13:48:21;21.80;99.90
23087;DHT22;11712;51.134;4.156;2023-05-07T13:50:46;22.10;99.90
23087;DHT22;11712;51.134;4.156;2023-05-07T13:53:12;22.30;99.90
23087;DHT22;11712;51.134;4.156;2023-05-07T13:55:37;22.30;99.90
23087;DHT22;11712;51.134;4.156;2023-05-07T13:58:03;22.30;99.90
23087;DHT22;11712;51.134;4.156;2023-05-07T14:00:28;22.20;99.90
23087;DHT22;11712;51.134;4.156;2023-05-07T14:02:55;22.20;99.90
23087;DHT22;11712;51.134;4.156;2023-05-07T14:05:20;22.40;99.90
23087;DHT22;11712;51.134;4.156;2023-05-07T14:07:48;22.10;99.90
23087;DHT22;11712;51.134;4.156;2023-05-07T14:10:17;22.40;99.90
23087;DHT22;11712;51.134;4.156;2023-05-07T14:12:43;22.60;99.90
23087;DHT22;11712;51.134;4.156;2023-05-07T14:15:09;22.50;99.90
23087;DHT22;11712;51.134;4.156;2023-05-07T14:17:34;22.40;99.90
23087;DHT22;11712;51.134;4.156;2023-05-07T14:20:00;22.30;99.90
23087;DHT22;11712;51.134;4.156;2023-05-07T14:22:26;22.50;99.90
23087;DHT22;11712;51.134;4.156;2023-05-07T14:24:51;22.80;99.90
23087;DHT22;11712;51.134;4.156;2023-05-07T14:27:17;22.60;99.90
23087;DHT22;11712;51.134;4.156;2023-05-07T14:29:42;22.60;99.90
23087;DHT22;11712;51.134;4.156;2023-05-07T14:32:08;22.90;99.90
23087;DHT22;11712;51.134;4.156;2023-05-07T14:34:34;22.60;99.90
23087;DHT22;11712;51.134;4.156;2023-05-07T14:37:00;22.30;99.90
23087;DHT22;11712;51.134;4.156;2023-05-07T14:39:25;22.10;99.90
23087;DHT22;11712;51.134;4.156;2023-05-07T14:41:51;22.20;99.90
23087;DHT22;11712;51.134;4.156;2023-05-07T14:44:17;22.10;99.90
23087;DHT22;11712;51.134;4.156;2023-05-07T14:46:43;22.10;99.90
23087;DHT22;11712;51.134;4.156;2023-05-07T14:49:08;22.00;99.90
23087;DHT22;11712;51.134;4.156;2023-05-07T14:51:45;22.30;99.90
23087;DHT22;11712;51.134;4.156;2023-05-07T14:54:11;22.60;99.90
23087;DHT22;11712;51.134;4.156;2023-05-07T14:56:36;22.60;99.90
23087;DHT22;11712;51.134;4.156;2023-05-07T14:59:02;22.80;99.90
23087;DHT22;11712;51.134;4.156;2023-05-07T15:01:28;23.00;99.90
23087;DHT22;11712;51.134;4.156;2023-05-07T15:03:54;22.80;99.90
23087;DHT22;11712;51.134;4.156;2023-05-07T15:06:19;22.90;99.90
23087;DHT22;11712;51.134;4.156;2023-05-07T15:08:45;22.70;99.90
23087;DHT22;11712;51.134;4.156;2023-05-07T15:11:11;22.70;99.90
23087;DHT22;11712;51.134;4.156;2023-05-07T15:13:36;22.60;99.90
23087;DHT22;11712;51.134;4.156;2023-05-07T15:16:02;22.60;99.90
23087;DHT22;11712;51.134;4.156;2023-05-07T15:18:27;22.70;99.90
23087;DHT22;11712;51.134;4.156;2023-05-07T15:20:53;22.80;99.90
23087;DHT22;11712;51.134;4.156;2023-05-07T15:23:18;22.80;99.90
23087;DHT22;11712;51.134;4.156;2023-05-07T15:25:44;22.80;99.90
23087;DHT22;11712;51.134;4.156;2023-05-07T15:28:09;23.00;99.90
23087;DHT22;11712;51.134;4.156;2023-05-07T15:30:35;23.30;99.90
23087;DHT22;11712;51.134;4.156;2023-05-07T15:33:01;23.00;99.90
23087;DHT22;11712;51.134;4.156;2023-05-07T15:35:27;23.20;99.90
23087;DHT22;11712;51.134;4.156;2023-05-07T15:37:53;23.50;99.90
23087;DHT22;11712;51.134;4.156;2023-05-07T15:40:19;23.60;99.90
23087;DHT22;11712;51.134;4.156;2023-05-07T15:42:44;23.60;99.90